createdAt,value
2019-01-04T00:00:32.847Z,15.67
2019-01-04T00:03:03.141Z,15.60
2019-01-04T00:05:33.272Z,15.53
2019-01-04T00:08:03.220Z,16.53
2019-01-04T00:10:33.607Z,16.33
2019-01-04T00:13:03.423Z,15.90
2019-01-04T00:15:33.353Z,15.10
2019-01-04T00:18:03.222Z,13.87
2019-01-04T00:20:33.775Z,16.00
2019-01-04T00:23:03.681Z,17.00
2019-01-04T00:25:33.939Z,17.60
2019-01-04T00:28:04.137Z,17.13
2019-01-04T00:30:34.354Z,19.33
2019-01-04T00:33:04.527Z,20.70
2019-01-04T00:35:34.752Z,24.83
2019-01-04T00:38:04.955Z,17.73
2019-01-04T00:40:35.492Z,16.03
2019-01-04T00:43:05.791Z,15.30
2019-01-04T00:45:35.660Z,16.57
2019-01-04T00:48:06.385Z,15.37
2019-01-04T00:50:36.312Z,16.47
2019-01-04T00:53:06.775Z,17.13
2019-01-04T00:56:03.244Z,15.97
2019-01-04T00:59:29.536Z,14.53
2019-01-04T01:02:24.115Z,15.83
2019-01-04T01:05:28.741Z,14.90
2019-01-04T01:08:46.039Z,17.80
2019-01-04T01:12:05.008Z,16.47
2019-01-04T01:15:20.364Z,17.73
2019-01-04T01:18:25.536Z,18.07
2019-01-04T01:21:36.543Z,19.67
2019-01-04T01:24:54.750Z,17.33
2019-01-04T01:28:05.115Z,16.87
2019-01-04T01:31:27.278Z,16.50
2019-01-04T01:34:28.685Z,15.93
2019-01-04T01:37:45.556Z,16.33
2019-01-04T01:41:02.271Z,18.00
2019-01-04T01:43:55.799Z,17.00
2019-01-04T01:47:02.888Z,15.90
2019-01-04T01:50:26.221Z,18.83
2019-01-04T01:52:56.414Z,15.77
2019-01-04T01:55:26.293Z,20.03
2019-01-04T01:57:56.658Z,17.30
2019-01-04T02:00:26.569Z,18.70
2019-01-04T02:02:56.596Z,17.47
2019-01-04T02:05:26.567Z,17.50
2019-01-04T02:07:56.519Z,17.93
2019-01-04T02:10:26.755Z,17.17
2019-01-04T02:12:56.705Z,17.50
2019-01-04T02:15:26.931Z,18.70
2019-01-04T02:17:57.232Z,17.50
2019-01-04T02:20:28.362Z,15.53
2019-01-04T02:22:58.699Z,15.37
2019-01-04T02:25:28.664Z,14.87
2019-01-04T02:27:59.320Z,15.67
2019-01-04T02:30:29.280Z,16.10
2019-01-04T02:32:59.742Z,15.30
2019-01-04T02:35:30.409Z,16.20
2019-01-04T02:38:00.934Z,16.03
2019-01-04T02:40:31.471Z,18.30
2019-01-04T02:43:01.382Z,14.90
2019-01-04T02:45:31.313Z,18.00
2019-01-04T02:48:02.405Z,16.53
2019-01-04T02:50:32.328Z,15.50
2019-01-04T02:53:02.750Z,15.93
2019-01-04T02:55:32.748Z,16.80
2019-01-04T02:58:02.694Z,16.50
2019-01-04T03:00:32.966Z,16.50
2019-01-04T03:03:03.627Z,16.50
2019-01-04T03:05:33.925Z,15.23
2019-01-04T03:08:04.082Z,14.80
2019-01-04T03:10:34.096Z,15.10
2019-01-04T03:13:04.771Z,15.80
2019-01-04T03:15:35.346Z,15.80
2019-01-04T03:18:05.698Z,16.03
2019-01-04T03:20:36.464Z,16.30
2019-01-04T03:23:06.466Z,16.90
2019-01-04T03:25:36.731Z,15.63
2019-01-04T03:28:06.775Z,15.67
2019-01-04T03:30:36.798Z,17.30
2019-01-04T03:33:07.304Z,16.50
2019-01-04T03:35:37.328Z,15.33
2019-01-04T03:38:07.533Z,17.30
2019-01-04T03:40:37.442Z,18.83
2019-01-04T03:43:07.955Z,18.90
2019-01-04T03:45:37.936Z,17.00
2019-01-04T03:48:07.897Z,17.43
2019-01-04T03:50:38.206Z,17.97
2019-01-04T03:53:08.178Z,19.40
2019-01-04T03:55:38.788Z,19.33
2019-01-04T03:58:09.497Z,21.00
2019-01-04T04:00:39.883Z,24.07
2019-01-04T04:03:09.769Z,22.10
2019-01-04T04:05:39.729Z,21.03
2019-01-04T04:08:09.603Z,21.43
2019-01-04T04:10:39.575Z,22.27
2019-01-04T04:13:09.870Z,22.33
2019-01-04T04:15:40.412Z,20.10
2019-01-04T04:18:10.371Z,21.43
2019-01-04T04:20:40.255Z,21.30
2019-01-04T04:23:10.192Z,20.70
2019-01-04T04:25:40.533Z,25.07
2019-01-04T04:28:10.430Z,25.43
2019-01-04T04:30:40.714Z,26.40
2019-01-04T04:33:11.701Z,24.60
2019-01-04T04:35:41.990Z,23.83
2019-01-04T04:38:12.317Z,22.97
2019-01-04T04:40:42.350Z,21.67
2019-01-04T04:43:12.316Z,21.90
2019-01-04T04:45:42.286Z,21.37
2019-01-04T04:48:12.175Z,20.40
2019-01-04T04:50:42.435Z,20.63
2019-01-04T04:53:12.332Z,21.40
2019-01-04T04:55:42.389Z,20.93
2019-01-04T04:58:12.756Z,21.27
2019-01-04T05:00:44.758Z,19.20
2019-01-04T05:03:14.973Z,20.87
2019-01-04T05:05:45.252Z,18.57
2019-01-04T05:08:15.556Z,20.13
2019-01-04T05:10:45.533Z,18.60
2019-01-04T05:13:16.089Z,18.27
2019-01-04T05:15:46.138Z,19.20
2019-01-04T05:18:16.798Z,22.37
2019-01-04T05:20:46.681Z,16.67
2019-01-04T05:23:17.021Z,19.00
2019-01-04T05:25:47.368Z,20.20
2019-01-04T05:28:17.810Z,22.00
2019-01-04T05:30:47.801Z,24.00
2019-01-04T05:33:17.743Z,25.20
2019-01-04T05:35:47.987Z,25.33
2019-01-04T05:38:17.928Z,19.43
2019-01-04T05:40:48.209Z,18.87
2019-01-04T05:43:18.806Z,18.07
2019-01-04T05:45:49.095Z,17.80
2019-01-04T05:48:19.069Z,21.40
2019-01-04T05:50:48.944Z,17.90
2019-01-04T05:53:18.872Z,20.53
2019-01-04T05:55:48.849Z,20.13
2019-01-04T05:58:18.701Z,20.90
2019-01-04T06:00:48.705Z,19.60
2019-01-04T06:03:18.650Z,21.43
2019-01-04T06:05:49.269Z,20.80
2019-01-04T06:08:19.121Z,20.37
2019-01-04T06:10:49.387Z,19.67
2019-01-04T06:13:19.392Z,18.83
2019-01-04T06:15:49.686Z,17.50
2019-01-04T06:18:19.658Z,17.77
2019-01-04T06:20:50.324Z,18.50
2019-01-04T06:23:20.274Z,16.57
2019-01-04T06:25:50.569Z,17.60
2019-01-04T06:28:20.444Z,16.00
2019-01-04T06:30:50.293Z,16.27
2019-01-04T06:33:20.529Z,15.37
2019-01-04T06:35:50.788Z,15.40
2019-01-04T06:38:20.731Z,15.53
2019-01-04T06:40:50.791Z,14.27
2019-01-04T06:43:21.101Z,15.03
2019-01-04T06:45:51.025Z,15.00
2019-01-04T06:48:21.305Z,16.63
2019-01-04T06:50:51.713Z,16.30
2019-01-04T06:53:22.255Z,14.20
2019-01-04T06:55:54.944Z,16.33
2019-01-04T06:58:25.661Z,14.87
2019-01-04T07:00:55.948Z,17.23
2019-01-04T07:03:26.945Z,14.53
2019-01-04T07:05:57.948Z,16.43
2019-01-04T07:08:27.980Z,14.30
2019-01-04T07:10:57.831Z,15.37
2019-01-04T07:13:28.730Z,18.95
2019-01-04T07:15:58.683Z,19.00
2019-01-04T07:18:28.578Z,17.60
2019-01-04T07:20:58.451Z,17.73
2019-01-04T07:23:28.476Z,18.60
2019-01-04T07:25:58.420Z,16.63
2019-01-04T07:28:28.307Z,14.50
2019-01-04T07:30:58.198Z,16.93
2019-01-04T07:33:28.127Z,15.33
2019-01-04T07:35:57.992Z,15.80
2019-01-04T07:38:27.971Z,14.47
2019-01-04T07:40:57.914Z,14.20
2019-01-04T07:43:28.261Z,16.20
2019-01-04T07:45:58.294Z,12.20
2019-01-04T07:48:28.272Z,13.60
2019-01-04T07:50:58.122Z,13.10
2019-01-04T07:53:28.004Z,13.50
2019-01-04T07:55:57.979Z,11.80
2019-01-04T07:58:27.834Z,12.53
2019-01-04T08:00:57.812Z,11.80
2019-01-04T08:03:27.688Z,11.00
2019-01-04T08:06:00.490Z,11.93
2019-01-04T08:08:30.751Z,11.07
2019-01-04T08:11:01.679Z,12.18
2019-01-04T08:13:31.870Z,11.57
2019-01-04T08:16:01.699Z,11.67
2019-01-04T08:18:32.175Z,11.83
2019-01-04T08:21:02.059Z,11.80
2019-01-04T08:23:32.383Z,11.00
2019-01-04T08:26:02.572Z,12.23
2019-01-04T08:28:32.520Z,11.20
2019-01-04T08:31:02.388Z,11.30
2019-01-04T08:33:32.329Z,12.73
2019-01-04T08:36:02.511Z,11.30
2019-01-04T08:38:33.172Z,11.07
2019-01-04T08:41:03.124Z,10.57
2019-01-04T08:43:33.074Z,9.93
2019-01-04T08:46:03.049Z,11.60
2019-01-04T08:48:33.271Z,9.73
2019-01-04T08:51:03.165Z,10.00
2019-01-04T08:53:58.404Z,10.30
2019-01-04T08:56:30.572Z,10.20
2019-01-04T08:59:00.816Z,11.10
2019-01-04T09:01:31.470Z,10.17
2019-01-04T09:04:01.426Z,11.43
2019-01-04T09:06:31.568Z,11.20
2019-01-04T09:09:02.215Z,11.47
2019-01-04T09:11:32.110Z,10.80
2019-01-04T09:14:03.769Z,10.80
2019-01-04T09:16:33.658Z,10.93
2019-01-04T09:19:03.544Z,10.67
2019-01-04T09:21:33.502Z,10.87
2019-01-04T09:24:03.736Z,11.17
2019-01-04T09:26:33.701Z,11.60
2019-01-04T09:29:03.581Z,11.60
2019-01-04T09:31:34.166Z,11.20
2019-01-04T09:34:04.203Z,11.80
2019-01-04T09:36:34.105Z,10.73
2019-01-04T09:39:06.067Z,9.73
2019-01-04T09:42:17.874Z,10.17
2019-01-04T09:44:47.967Z,8.97
2019-01-04T09:47:17.903Z,9.87
2019-01-04T09:49:47.837Z,8.70
2019-01-04T09:52:18.672Z,9.40
2019-01-04T09:54:48.636Z,8.23
2019-01-04T09:57:23.450Z,7.77
2019-01-04T09:59:50.290Z,7.33
2019-01-04T10:02:20.191Z,8.30
2019-01-04T10:04:50.078Z,7.27
2019-01-04T10:07:20.077Z,8.07
2019-01-04T10:09:49.978Z,5.60
2019-01-04T10:12:19.895Z,6.53
2019-01-04T10:14:49.777Z,6.60
2019-01-04T10:17:19.718Z,7.23
2019-01-04T10:19:49.677Z,6.50
2019-01-04T10:22:19.560Z,6.10
2019-01-04T10:24:49.484Z,6.47
2019-01-04T10:27:19.509Z,6.10
2019-01-04T10:29:49.607Z,6.20
2019-01-04T10:32:19.544Z,6.07
2019-01-04T10:34:49.369Z,6.67
2019-01-04T10:37:19.250Z,7.07
2019-01-04T10:39:49.115Z,6.43
2019-01-04T10:42:19.497Z,6.87
2019-01-04T10:44:49.456Z,7.47
2019-01-04T10:47:19.668Z,6.10
2019-01-04T10:49:49.851Z,6.20
2019-01-04T10:52:20.128Z,7.20
2019-01-04T10:54:50.691Z,7.43
2019-01-04T10:57:20.650Z,6.67
2019-01-04T10:59:50.517Z,6.80
2019-01-04T11:02:20.410Z,7.10
2019-01-04T11:04:50.423Z,6.80
2019-01-04T11:07:20.469Z,5.70
2019-01-04T11:09:50.618Z,5.97
2019-01-04T11:12:20.605Z,6.80
2019-01-04T11:14:50.997Z,5.83
2019-01-04T11:17:20.973Z,6.60
2019-01-04T11:19:50.918Z,6.37
2019-01-04T11:22:52.734Z,5.93
2019-01-04T11:25:59.903Z,6.67
2019-01-04T11:28:54.976Z,5.73
2019-01-04T11:31:52.192Z,5.77
2019-01-04T11:34:39.337Z,6.13
2019-01-04T11:37:59.619Z,6.47
2019-01-04T11:40:52.739Z,5.70
2019-01-04T11:44:19.241Z,5.40
2019-01-04T11:47:23.740Z,5.40
2019-01-04T11:50:26.058Z,5.30
2019-01-04T11:53:01.372Z,5.10
2019-01-04T11:55:31.499Z,5.50
2019-01-04T11:58:01.477Z,5.00
2019-01-04T12:00:31.502Z,5.13
2019-01-04T12:03:02.348Z,3.90
2019-01-04T12:05:32.528Z,3.97
2019-01-04T12:08:02.517Z,4.03
2019-01-04T12:10:32.755Z,5.03
2019-01-04T12:13:02.855Z,5.07
2019-01-04T12:15:34.820Z,4.47
2019-01-04T12:18:05.835Z,4.67
2019-01-04T12:20:35.970Z,7.27
2019-01-04T12:23:11.120Z,4.30
2019-01-04T12:25:38.819Z,4.23
2019-01-04T12:28:09.136Z,4.07
2019-01-04T12:30:40.570Z,3.67
2019-01-04T12:33:10.984Z,3.70
2019-01-04T12:35:42.190Z,3.90
2019-01-04T12:38:15.331Z,4.00
2019-01-04T12:40:45.489Z,4.50
2019-01-04T12:43:15.417Z,4.83
2019-01-04T12:45:44.926Z,5.07
2019-01-04T12:48:17.171Z,4.40
2019-01-04T12:50:47.532Z,4.67
2019-01-04T12:53:17.685Z,3.87
2019-01-04T12:55:47.870Z,4.37
2019-01-04T12:58:18.232Z,4.07
2019-01-04T13:00:48.505Z,4.30
2019-01-04T13:03:18.861Z,4.20
2019-01-04T13:05:48.941Z,4.47
2019-01-04T13:08:18.801Z,3.93
2019-01-04T13:10:48.674Z,3.83
2019-01-04T13:13:19.030Z,3.40
2019-01-04T13:15:49.047Z,3.23
2019-01-04T13:18:18.969Z,2.83
2019-01-04T13:20:48.838Z,3.67
2019-01-04T13:23:19.731Z,3.83
2019-01-04T13:25:49.646Z,3.17
2019-01-04T13:28:19.542Z,3.70
2019-01-04T13:30:49.540Z,3.80
2019-01-04T13:33:19.576Z,3.50
2019-01-04T13:35:49.822Z,3.63
2019-01-04T13:38:20.066Z,3.50
2019-01-04T13:40:50.663Z,3.43
2019-01-04T13:43:20.701Z,2.87
2019-01-04T13:45:50.582Z,3.30
2019-01-04T13:48:20.575Z,3.20
2019-01-04T13:50:50.450Z,3.93
2019-01-04T13:53:20.339Z,3.47
2019-01-04T13:55:50.296Z,3.30
2019-01-04T13:58:20.181Z,3.40
2019-01-04T14:00:51.930Z,3.47
2019-01-04T14:03:22.487Z,3.10
2019-01-04T14:05:52.372Z,3.30
2019-01-04T14:08:22.213Z,3.70
2019-01-04T14:10:52.388Z,3.03
2019-01-04T14:13:22.241Z,2.73
2019-01-04T14:15:52.118Z,3.10
2019-01-04T14:18:22.040Z,3.10
2019-01-04T14:20:51.944Z,3.42
2019-01-04T14:23:21.916Z,3.57
2019-01-04T14:25:51.791Z,3.47
2019-01-04T14:28:21.716Z,3.53
2019-01-04T14:30:51.622Z,4.07
2019-01-04T14:33:21.532Z,3.90
2019-01-04T14:35:51.453Z,3.80
2019-01-04T14:38:21.383Z,3.63
2019-01-04T14:40:53.487Z,3.80
2019-01-04T14:43:23.821Z,3.80
2019-01-04T14:45:53.839Z,3.70
2019-01-04T14:48:23.788Z,3.50
2019-01-04T14:50:54.876Z,4.20
2019-01-04T14:53:24.757Z,4.47
2019-01-04T14:55:55.084Z,4.27
2019-01-04T14:58:25.091Z,4.53
2019-01-04T15:00:55.363Z,4.20
2019-01-04T15:03:25.508Z,4.10
2019-01-04T15:05:57.188Z,4.57
2019-01-04T15:08:27.401Z,4.27
2019-01-04T15:10:57.370Z,3.57
2019-01-04T15:13:27.683Z,4.10
2019-01-04T15:15:57.942Z,4.47
2019-01-04T15:18:27.888Z,3.70
2019-01-04T15:20:58.116Z,4.70
2019-01-04T15:23:28.048Z,4.57
2019-01-04T15:25:58.046Z,4.20
2019-01-04T15:28:27.875Z,4.47
2019-01-04T15:30:57.738Z,5.20
2019-01-04T15:33:27.592Z,4.83
2019-01-04T15:35:57.606Z,5.00
2019-01-04T15:38:27.550Z,4.83
2019-01-04T15:40:57.765Z,4.93
2019-01-04T15:43:27.715Z,4.50
2019-01-04T15:45:57.715Z,5.20
2019-01-04T15:48:27.563Z,4.53
2019-01-04T15:50:57.448Z,4.10
2019-01-04T15:53:27.291Z,4.77
2019-01-04T15:55:57.209Z,4.17
2019-01-04T15:58:27.151Z,3.90
2019-01-04T16:00:57.795Z,4.47
2019-01-04T16:03:27.930Z,4.93
2019-01-04T16:05:57.855Z,5.10
2019-01-04T16:08:28.136Z,4.40
2019-01-04T16:10:58.012Z,4.03
2019-01-04T16:13:27.852Z,5.77
2019-01-04T16:15:59.850Z,4.70
2019-01-04T16:18:29.681Z,4.53
2019-01-04T16:20:59.576Z,4.50
2019-01-04T16:23:29.427Z,5.50
2019-01-04T16:25:59.884Z,4.30
2019-01-04T16:28:29.900Z,5.50
2019-01-04T16:30:59.849Z,5.23
2019-01-04T16:33:29.717Z,4.43
2019-01-04T16:35:59.956Z,6.40
2019-01-04T16:38:29.944Z,5.87
2019-01-04T16:41:00.609Z,5.63
2019-01-04T16:43:31.485Z,4.93
2019-01-04T16:46:01.339Z,6.37
2019-01-04T16:48:31.416Z,4.80
2019-01-04T16:51:01.273Z,4.73
2019-01-04T16:53:31.155Z,4.37
2019-01-04T16:56:01.182Z,4.63
2019-01-04T16:58:31.527Z,5.80
2019-01-04T17:01:01.359Z,4.23
2019-01-04T17:03:31.315Z,4.10
2019-01-04T17:06:01.489Z,4.10
2019-01-04T17:08:31.338Z,3.90
2019-01-04T17:11:01.839Z,3.97
2019-01-04T17:13:31.738Z,4.33
2019-01-04T17:16:01.578Z,3.93
2019-01-04T17:18:31.504Z,4.17
2019-01-04T17:21:01.374Z,4.83
2019-01-04T17:23:31.550Z,3.87
2019-01-04T17:26:01.678Z,4.70
2019-01-04T17:28:31.597Z,4.50
2019-01-04T17:31:01.625Z,4.20
2019-01-04T17:33:31.491Z,3.87
2019-01-04T17:36:02.133Z,4.27
2019-01-04T17:38:32.057Z,4.20
2019-01-04T17:41:02.308Z,4.10
2019-01-04T17:43:32.699Z,3.50
2019-01-04T17:46:03.317Z,4.20
2019-01-04T17:48:33.869Z,3.80
2019-01-04T17:51:03.781Z,4.60
2019-01-04T17:53:33.731Z,3.83
2019-01-04T17:56:04.589Z,4.00
2019-01-04T17:58:34.439Z,3.40
2019-01-04T18:01:04.825Z,3.77
2019-01-04T18:03:34.681Z,3.53
2019-01-04T18:06:05.124Z,4.17
2019-01-04T18:08:35.743Z,5.00
2019-01-04T18:11:05.604Z,3.30
2019-01-04T18:13:36.191Z,3.90
2019-01-04T18:16:06.036Z,3.03
2019-01-04T18:18:35.961Z,4.70
2019-01-04T18:21:05.918Z,2.90
2019-01-04T18:23:35.839Z,2.97
2019-01-04T18:26:05.691Z,2.80
2019-01-04T18:28:35.528Z,2.87
2019-01-04T18:31:05.373Z,3.10
2019-01-04T18:33:35.232Z,2.80
2019-01-04T18:36:05.188Z,2.90
2019-01-04T18:38:35.063Z,3.30
2019-01-04T18:41:04.977Z,3.07
2019-01-04T18:43:34.961Z,2.73
2019-01-04T18:46:04.922Z,3.07
2019-01-04T18:48:34.798Z,2.83
2019-01-04T18:51:04.803Z,3.13
2019-01-04T18:53:35.190Z,3.00
2019-01-04T18:56:05.046Z,2.87
2019-01-04T18:58:35.055Z,3.00
2019-01-04T19:01:05.461Z,3.00
2019-01-04T19:03:35.323Z,2.90
2019-01-04T19:06:05.351Z,3.10
2019-01-04T19:08:35.393Z,3.20
2019-01-04T19:11:05.234Z,3.17
2019-01-04T19:13:35.270Z,3.57
2019-01-04T19:16:05.167Z,3.40
2019-01-04T19:18:35.138Z,3.27
2019-01-04T19:21:05.067Z,3.90
2019-01-04T19:23:39.543Z,3.13
2019-01-04T19:26:06.783Z,3.60
2019-01-04T19:28:36.972Z,3.30
2019-01-04T19:31:07.482Z,3.20
2019-01-04T19:33:37.867Z,3.70
2019-01-04T19:36:07.827Z,3.50
2019-01-04T19:38:37.860Z,3.53
2019-01-04T19:41:08.189Z,3.17
2019-01-04T19:43:38.067Z,3.50
2019-01-04T19:46:08.548Z,3.80
2019-01-04T19:48:38.421Z,3.90
2019-01-04T19:51:08.694Z,3.53
2019-01-04T19:53:38.525Z,3.67
2019-01-04T19:56:08.538Z,3.60
2019-01-04T19:58:38.726Z,4.00
2019-01-04T20:01:08.664Z,3.20
2019-01-04T20:03:38.509Z,3.57
2019-01-04T20:06:57.726Z,3.17
2019-01-04T20:10:03.829Z,4.17
2019-01-04T20:14:00.415Z,3.63
2019-01-04T20:16:53.744Z,3.27
2019-01-04T20:19:46.624Z,2.93
2019-01-04T20:22:40.603Z,3.70
2019-01-04T20:25:29.591Z,2.97
2019-01-04T20:28:28.013Z,3.50
2019-01-04T20:31:16.991Z,3.73
2019-01-04T20:34:22.564Z,5.87
2019-01-04T20:37:23.848Z,3.37
2019-01-04T20:40:12.086Z,4.03
2019-01-04T20:42:59.864Z,3.30
2019-01-04T20:46:01.053Z,3.50
2019-01-04T20:48:48.704Z,3.73
2019-01-04T20:51:44.118Z,3.67
2019-01-04T20:54:48.607Z,3.60
2019-01-04T20:57:36.635Z,3.73
2019-01-04T21:00:28.691Z,3.03
2019-01-04T21:03:29.691Z,3.67
2019-01-04T21:06:22.261Z,3.27
2019-01-04T21:09:29.851Z,2.70
2019-01-04T21:12:17.354Z,3.00
2019-01-04T21:15:24.364Z,2.67
2019-01-04T21:18:12.301Z,3.10
2019-01-04T21:21:01.321Z,3.00
2019-01-04T21:23:41.741Z,3.03
2019-01-04T21:26:29.993Z,3.47
2019-01-04T21:29:15.208Z,3.83
2019-01-04T21:32:06.320Z,3.07
2019-01-04T21:34:59.082Z,3.10
2019-01-04T21:38:03.451Z,2.93
2019-01-04T21:40:51.519Z,3.10
2019-01-04T21:43:52.907Z,3.40
2019-01-04T21:46:41.819Z,4.77
2019-01-04T21:49:33.875Z,3.20
2019-01-04T21:52:31.780Z,2.93
2019-01-04T21:55:33.224Z,2.70
2019-01-04T21:58:20.928Z,3.10
2019-01-04T22:01:08.631Z,2.70
2019-01-04T22:03:56.270Z,2.33
2019-01-04T22:06:43.912Z,2.50
2019-01-04T22:09:32.011Z,2.50
2019-01-04T22:12:19.711Z,2.63
2019-01-04T22:15:08.649Z,2.63
2019-01-04T22:18:09.777Z,2.43
2019-01-04T22:20:57.424Z,2.40
2019-01-04T22:23:55.889Z,1.87
2019-01-04T22:26:52.259Z,2.07
2019-01-04T22:29:39.915Z,2.07
2019-01-04T22:32:29.892Z,1.77
2019-01-04T22:35:18.999Z,2.00
2019-01-04T22:38:20.096Z,1.73
2019-01-04T22:41:12.096Z,2.00
2019-01-04T22:44:04.262Z,2.03
2019-01-04T22:46:52.746Z,1.90
2019-01-04T22:49:47.868Z,1.87
2019-01-04T22:52:35.649Z,1.97
2019-01-04T22:55:24.632Z,1.83
2019-01-04T22:58:19.676Z,1.57
2019-01-04T23:01:12.005Z,1.23
2019-01-04T23:03:54.960Z,1.80
2019-01-04T23:07:02.419Z,1.70
2019-01-04T23:09:54.777Z,1.57
2019-01-04T23:12:44.356Z,1.50
2019-01-04T23:15:32.330Z,1.60
2019-01-04T23:18:31.033Z,2.03
2019-01-04T23:21:59.912Z,1.60
2019-01-04T23:24:49.154Z,2.00
2019-01-04T23:27:50.382Z,1.50
2019-01-04T23:30:54.373Z,1.50
2019-01-04T23:33:49.662Z,2.00
2019-01-04T23:36:41.902Z,1.67
2019-01-04T23:39:27.249Z,1.70
2019-01-04T23:42:15.093Z,1.80
2019-01-04T23:45:04.098Z,1.70
2019-01-04T23:47:59.345Z,1.53
2019-01-04T23:51:03.361Z,1.70
2019-01-04T23:53:59.705Z,1.50
2019-01-04T23:56:47.555Z,1.80
2019-01-04T23:59:30.394Z,1.70
